sensor_id;sensor_type;location;lat;lon;timestamp;temperature;humidity
10459;DHT22;5277;48.722;8.736;2023-04-01T00:01:57;8.70;99.90
10459;DHT22;5277;48.722;8.736;2023-04-01T00:04:22;8.70;99.90
10459;DHT22;5277;48.722;8.736;2023-04-01T00:06:48;8.70;99.90
10459;DHT22;5277;48.722;8.736;2023-04-01T00:09:14;8.70;99.90
10459;DHT22;5277;48.722;8.736;2023-04-01T00:11:40;8.70;99.90
10459;DHT22;5277;48.722;8.736;2023-04-01T00:14:06;8.70;99.90
10459;DHT22;5277;48.722;8.736;2023-04-01T00:16:32;8.70;99.90
10459;DHT22;5277;48.722;8.736;2023-04-01T00:18:58;8.70;99.90
10459;DHT22;5277;48.722;8.736;2023-04-01T00:21:23;8.70;99.90
10459;DHT22;5277;48.722;8.736;2023-04-01T00:23:50;8.70;99.90
10459;DHT22;5277;48.722;8.736;2023-04-01T00:26:16;8.70;99.90
10459;DHT22;5277;48.722;8.736;2023-04-01T00:28:44;8.70;99.90
10459;DHT22;5277;48.722;8.736;2023-04-01T00:31:10;8.70;99.90
10459;DHT22;5277;48.722;8.736;2023-04-01T00:33:37;8.70;99.90
10459;DHT22;5277;48.722;8.736;2023-04-01T00:36:08;8.70;99.90
10459;DHT22;5277;48.722;8.736;2023-04-01T00:38:35;8.70;99.90
10459;DHT22;5277;48.722;8.736;2023-04-01T00:41:01;8.80;99.90
10459;DHT22;5277;48.722;8.736;2023-04-01T00:43:27;8.70;99.90
10459;DHT22;5277;48.722;8.736;2023-04-01T00:45:53;8.80;99.90
10459;DHT22;5277;48.722;8.736;2023-04-01T00:48:22;8.80;99.90
10459;DHT22;5277;48.722;8.736;2023-04-01T00:50:52;8.80;99.90
10459;DHT22;5277;48.722;8.736;2023-04-01T00:53:19;8.90;99.90
10459;DHT22;5277;48.722;8.736;2023-04-01T00:56:00;8.90;99.90
10459;DHT22;5277;48.722;8.736;2023-04-01T00:58:30;8.90;99.90
10459;DHT22;5277;48.722;8.736;2023-04-01T01:00:58;9.00;99.90
10459;DHT22;5277;48.722;8.736;2023-04-01T01:03:24;8.90;99.90
10459;DHT22;5277;48.722;8.736;2023-04-01T01:11:25;8.90;99.90
10459;DHT22;5277;48.722;8.736;2023-04-01T01:14:24;9.00;99.90
10459;DHT22;5277;48.722;8.736;2023-04-01T01:17:10;9.00;99.90
10459;DHT22;5277;48.722;8.736;2023-04-01T01:25:11;9.10;99.90
10459;DHT22;5277;48.722;8.736;2023-04-01T01:27:41;9.10;99.90
10459;DHT22;5277;48.722;8.736;2023-04-01T01:30:34;9.00;99.90
10459;DHT22;5277;48.722;8.736;2023-04-01T01:33:12;9.00;99.90
10459;DHT22;5277;48.722;8.736;2023-04-01T01:35:52;9.10;99.90
10459;DHT22;5277;48.722;8.736;2023-04-01T01:38:23;9.10;99.90
10459;DHT22;5277;48.722;8.736;2023-04-01T01:40:51;9.10;99.90
10459;DHT22;5277;48.722;8.736;2023-04-01T01:43:22;9.10;99.90
10459;DHT22;5277;48.722;8.736;2023-04-01T01:45:52;9.10;99.90
10459;DHT22;5277;48.722;8.736;2023-04-01T01:48:19;9.10;99.90
10459;DHT22;5277;48.722;8.736;2023-04-01T01:50:46;9.10;99.90
10459;DHT22;5277;48.722;8.736;2023-04-01T01:53:13;9.10;99.90
10459;DHT22;5277;48.722;8.736;2023-04-01T01:55:42;9.10;99.90
10459;DHT22;5277;48.722;8.736;2023-04-01T01:58:36;9.10;99.90
10459;DHT22;5277;48.722;8.736;2023-04-01T02:01:09;9.10;99.90
10459;DHT22;5277;48.722;8.736;2023-04-01T02:03:38;9.10;99.90
10459;DHT22;5277;48.722;8.736;2023-04-01T02:06:08;9.10;99.90
10459;DHT22;5277;48.722;8.736;2023-04-01T02:08:49;9.10;99.90
10459;DHT22;5277;48.722;8.736;2023-04-01T02:11:18;9.10;99.90
10459;DHT22;5277;48.722;8.736;2023-04-01T02:16:36;9.10;99.90
10459;DHT22;5277;48.722;8.736;2023-04-01T02:19:04;9.10;99.90
10459;DHT22;5277;48.722;8.736;2023-04-01T02:21:33;9.10;99.90
10459;DHT22;5277;48.722;8.736;2023-04-01T02:24:03;9.10;99.90
10459;DHT22;5277;48.722;8.736;2023-04-01T02:26:30;9.10;99.90
10459;DHT22;5277;48.722;8.736;2023-04-01T02:28:56;9.10;99.90
10459;DHT22;5277;48.722;8.736;2023-04-01T02:31:23;9.00;99.90
10459;DHT22;5277;48.722;8.736;2023-04-01T02:33:49;9.00;99.90
10459;DHT22;5277;48.722;8.736;2023-04-01T02:36:16;9.00;99.90
10459;DHT22;5277;48.722;8.736;2023-04-01T02:38:44;9.10;99.90
10459;DHT22;5277;48.722;8.736;2023-04-01T02:41:10;9.00;99.90
10459;DHT22;5277;48.722;8.736;2023-04-01T02:43:36;9.00;99.90
10459;DHT22;5277;48.722;8.736;2023-04-01T02:46:02;9.00;99.90
10459;DHT22;5277;48.722;8.736;2023-04-01T02:48:28;9.00;99.90
10459;DHT22;5277;48.722;8.736;2023-04-01T02:50:54;9.00;99.90
10459;DHT22;5277;48.722;8.736;2023-04-01T02:53:20;8.90;99.90
10459;DHT22;5277;48.722;8.736;2023-04-01T02:55:45;9.00;99.90
10459;DHT22;5277;48.722;8.736;2023-04-01T02:58:11;9.00;99.90
10459;DHT22;5277;48.722;8.736;2023-04-01T03:00:37;9.00;99.90
10459;DHT22;5277;48.722;8.736;2023-04-01T03:03:03;8.90;99.90
10459;DHT22;5277;48.722;8.736;2023-04-01T03:05:29;8.90;99.90
10459;DHT22;5277;48.722;8.736;2023-04-01T03:07:55;8.90;99.90
10459;DHT22;5277;48.722;8.736;2023-04-01T03:10:20;8.90;99.90
10459;DHT22;5277;48.722;8.736;2023-04-01T03:12:46;8.90;99.90
10459;DHT22;5277;48.722;8.736;2023-04-01T03:15:13;8.90;99.90
10459;DHT22;5277;48.722;8.736;2023-04-01T03:17:40;8.90;99.90
10459;DHT22;5277;48.722;8.736;2023-04-01T03:20:07;8.80;99.90
10459;DHT22;5277;48.722;8.736;2023-04-01T03:22:34;8.70;99.90
10459;DHT22;5277;48.722;8.736;2023-04-01T03:25:01;8.80;99.90
10459;DHT22;5277;48.722;8.736;2023-04-01T03:27:27;8.80;99.90
10459;DHT22;5277;48.722;8.736;2023-04-01T03:29:52;8.80;99.90
10459;DHT22;5277;48.722;8.736;2023-04-01T03:32:18;8.80;99.90
10459;DHT22;5277;48.722;8.736;2023-04-01T03:34:43;8.80;99.90
10459;DHT22;5277;48.722;8.736;2023-04-01T03:37:09;8.70;99.90
10459;DHT22;5277;48.722;8.736;2023-04-01T03:39:34;8.60;99.90
10459;DHT22;5277;48.722;8.736;2023-04-01T03:42:00;8.60;99.90
10459;DHT22;5277;48.722;8.736;2023-04-01T03:44:29;8.60;99.90
10459;DHT22;5277;48.722;8.736;2023-04-01T03:46:55;8.60;99.90
10459;DHT22;5277;48.722;8.736;2023-04-01T03:49:21;8.50;99.90
10459;DHT22;5277;48.722;8.736;2023-04-01T03:51:46;8.50;99.90
10459;DHT22;5277;48.722;8.736;2023-04-01T03:54:12;8.50;99.90
10459;DHT22;5277;48.722;8.736;2023-04-01T03:56:37;8.50;99.90
10459;DHT22;5277;48.722;8.736;2023-04-01T03:59:06;8.50;99.90
10459;DHT22;5277;48.722;8.736;2023-04-01T04:01:32;8.50;99.90
10459;DHT22;5277;48.722;8.736;2023-04-01T04:03:58;8.40;99.90
10459;DHT22;5277;48.722;8.736;2023-04-01T04:06:25;8.50;99.90
10459;DHT22;5277;48.722;8.736;2023-04-01T04:08:51;8.50;99.90
10459;DHT22;5277;48.722;8.736;2023-04-01T04:11:18;8.40;99.90
10459;DHT22;5277;48.722;8.736;2023-04-01T04:13:44;8.40;99.90
10459;DHT22;5277;48.722;8.736;2023-04-01T04:16:10;8.40;99.90
10459;DHT22;5277;48.722;8.736;2023-04-01T04:18:36;8.50;99.90
10459;DHT22;5277;48.722;8.736;2023-04-01T04:21:02;8.40;99.90
10459;DHT22;5277;48.722;8.736;2023-04-01T04:23:28;8.40;99.90
10459;DHT22;5277;48.722;8.736;2023-04-01T04:25:58;8.40;99.90
10459;DHT22;5277;48.722;8.736;2023-04-01T04:28:25;8.40;99.90
10459;DHT22;5277;48.722;8.736;2023-04-01T04:30:51;8.40;99.90
10459;DHT22;5277;48.722;8.736;2023-04-01T04:33:17;8.40;99.90
10459;DHT22;5277;48.722;8.736;2023-04-01T04:35:42;8.40;99.90
10459;DHT22;5277;48.722;8.736;2023-04-01T04:38:08;8.30;99.90
10459;DHT22;5277;48.722;8.736;2023-04-01T04:40:36;8.40;99.90
10459;DHT22;5277;48.722;8.736;2023-04-01T04:43:03;8.50;99.90
10459;DHT22;5277;48.722;8.736;2023-04-01T04:45:28;8.50;99.90
10459;DHT22;5277;48.722;8.736;2023-04-01T04:47:54;8.50;99.90
10459;DHT22;5277;48.722;8.736;2023-04-01T04:50:21;8.50;99.90
10459;DHT22;5277;48.722;8.736;2023-04-01T04:52:46;8.40;99.90
10459;DHT22;5277;48.722;8.736;2023-04-01T04:55:12;8.50;99.90
10459;DHT22;5277;48.722;8.736;2023-04-01T04:57:37;8.50;99.90
10459;DHT22;5277;48.722;8.736;2023-04-01T05:00:03;8.60;99.90
10459;DHT22;5277;48.722;8.736;2023-04-01T05:02:29;8.60;99.90
10459;DHT22;5277;48.722;8.736;2023-04-01T05:04:55;8.60;99.90
10459;DHT22;5277;48.722;8.736;2023-04-01T05:07:20;8.60;99.90
10459;DHT22;5277;48.722;8.736;2023-04-01T05:09:46;8.60;99.90
10459;DHT22;5277;48.722;8.736;2023-04-01T05:12:12;8.50;99.90
10459;DHT22;5277;48.722;8.736;2023-04-01T05:14:39;8.50;99.90
10459;DHT22;5277;48.722;8.736;2023-04-01T05:17:11;8.60;99.90
10459;DHT22;5277;48.722;8.736;2023-04-01T05:19:38;8.50;99.90
10459;DHT22;5277;48.722;8.736;2023-04-01T05:22:05;8.60;99.90
10459;DHT22;5277;48.722;8.736;2023-04-01T05:24:30;8.60;99.90
10459;DHT22;5277;48.722;8.736;2023-04-01T05:26:57;8.50;99.90
10459;DHT22;5277;48.722;8.736;2023-04-01T05:29:26;8.60;99.90
10459;DHT22;5277;48.722;8.736;2023-04-01T05:31:52;8.60;99.90
10459;DHT22;5277;48.722;8.736;2023-04-01T05:34:17;8.60;99.90
10459;DHT22;5277;48.722;8.736;2023-04-01T05:36:44;8.60;99.90
10459;DHT22;5277;48.722;8.736;2023-04-01T05:39:10;8.60;99.90
10459;DHT22;5277;48.722;8.736;2023-04-01T05:41:37;8.60;99.90
10459;DHT22;5277;48.722;8.736;2023-04-01T05:44:04;8.60;99.90
10459;DHT22;5277;48.722;8.736;2023-04-01T05:46:30;8.70;99.90
10459;DHT22;5277;48.722;8.736;2023-04-01T05:48:55;8.70;99.90
10459;DHT22;5277;48.722;8.736;2023-04-01T05:51:21;8.70;99.90
10459;DHT22;5277;48.722;8.736;2023-04-01T05:53:46;8.80;99.90
10459;DHT22;5277;48.722;8.736;2023-04-01T05:56:12;8.80;99.90
10459;DHT22;5277;48.722;8.736;2023-04-01T05:58:38;8.90;99.90
10459;DHT22;5277;48.722;8.736;2023-04-01T06:01:07;8.90;99.90
10459;DHT22;5277;48.722;8.736;2023-04-01T06:03:33;8.90;99.90
10459;DHT22;5277;48.722;8.736;2023-04-01T06:05:59;9.00;99.90
10459;DHT22;5277;48.722;8.736;2023-04-01T06:08:27;9.00;99.90
10459;DHT22;5277;48.722;8.736;2023-04-01T06:11:15;9.00;99.90
10459;DHT22;5277;48.722;8.736;2023-04-01T06:19:57;9.10;99.90
10459;DHT22;5277;48.722;8.736;2023-04-01T06:25:40;9.00;99.90
10459;DHT22;5277;48.722;8.736;2023-04-01T06:36:39;9.00;99.90
10459;DHT22;5277;48.722;8.736;2023-04-01T06:39:35;9.00;99.90
10459;DHT22;5277;48.722;8.736;2023-04-01T06:51:53;9.20;99.90
10459;DHT22;5277;48.722;8.736;2023-04-01T06:54:34;9.30;99.90
10459;DHT22;5277;48.722;8.736;2023-04-01T06:57:11;9.30;99.90
10459;DHT22;5277;48.722;8.736;2023-04-01T06:59:41;9.30;99.90
10459;DHT22;5277;48.722;8.736;2023-04-01T07:04:43;9.30;99.90
10459;DHT22;5277;48.722;8.736;2023-04-01T07:07:31;9.30;99.90
10459;DHT22;5277;48.722;8.736;2023-04-01T07:09:59;9.40;99.90
10459;DHT22;5277;48.722;8.736;2023-04-01T07:14:56;9.30;99.90
10459;DHT22;5277;48.722;8.736;2023-04-01T07:17:28;9.30;99.90
10459;DHT22;5277;48.722;8.736;2023-04-01T07:20:15;9.40;99.90
10459;DHT22;5277;48.722;8.736;2023-04-01T07:22:45;9.40;99.90
10459;DHT22;5277;48.722;8.736;2023-04-01T07:27:43;9.40;99.90
10459;DHT22;5277;48.722;8.736;2023-04-01T07:30:30;9.50;99.90
10459;DHT22;5277;48.722;8.736;2023-04-01T07:33:08;9.50;99.90
10459;DHT22;5277;48.722;8.736;2023-04-01T07:36:03;9.50;99.90
10459;DHT22;5277;48.722;8.736;2023-04-01T07:43:50;9.50;99.90
10459;DHT22;5277;48.722;8.736;2023-04-01T07:49:16;9.60;99.90
10459;DHT22;5277;48.722;8.736;2023-04-01T07:57:05;9.60;99.90
10459;DHT22;5277;48.722;8.736;2023-04-01T08:05:26;9.60;99.90
10459;DHT22;5277;48.722;8.736;2023-04-01T08:10:54;9.60;99.90
10459;DHT22;5277;48.722;8.736;2023-04-01T08:14:26;9.70;99.90
10459;DHT22;5277;48.722;8.736;2023-04-01T08:22:40;9.60;99.90
10459;DHT22;5277;48.722;8.736;2023-04-01T08:25:13;9.70;99.90
10459;DHT22;5277;48.722;8.736;2023-04-01T08:27:48;9.70;99.90
10459;DHT22;5277;48.722;8.736;2023-04-01T08:30:33;9.70;99.90
10459;DHT22;5277;48.722;8.736;2023-04-01T08:33:13;9.80;99.90
10459;DHT22;5277;48.722;8.736;2023-04-01T08:35:46;9.70;99.90
10459;DHT22;5277;48.722;8.736;2023-04-01T08:38:17;9.60;99.90
10459;DHT22;5277;48.722;8.736;2023-04-01T08:40:58;9.70;99.90
10459;DHT22;5277;48.722;8.736;2023-04-01T08:43:41;9.70;99.90
10459;DHT22;5277;48.722;8.736;2023-04-01T08:58:02;9.90;99.90
10459;DHT22;5277;48.722;8.736;2023-04-01T09:06:31;10.10;99.90
10459;DHT22;5277;48.722;8.736;2023-04-01T09:31:32;10.70;99.90
10459;DHT22;5277;48.722;8.736;2023-04-01T09:37:29;10.70;99.90
10459;DHT22;5277;48.722;8.736;2023-04-01T09:39:55;10.60;99.90
10459;DHT22;5277;48.722;8.736;2023-04-01T10:11:09;10.80;99.90
10459;DHT22;5277;48.722;8.736;2023-04-01T10:14:00;10.80;99.90
10459;DHT22;5277;48.722;8.736;2023-04-01T10:31:35;11.80;99.90
10459;DHT22;5277;48.722;8.736;2023-04-01T10:34:27;12.00;99.90
10459;DHT22;5277;48.722;8.736;2023-04-01T10:37:02;12.10;99.90
10459;DHT22;5277;48.722;8.736;2023-04-01T10:39:34;12.10;99.90
10459;DHT22;5277;48.722;8.736;2023-04-01T10:50:47;11.70;99.90
10459;DHT22;5277;48.722;8.736;2023-04-01T11:02:57;12.00;99.90
10459;DHT22;5277;48.722;8.736;2023-04-01T11:08:56;12.80;99.90
10459;DHT22;5277;48.722;8.736;2023-04-01T11:20:35;13.80;99.90
10459;DHT22;5277;48.722;8.736;2023-04-01T11:26:23;14.10;99.90
10459;DHT22;5277;48.722;8.736;2023-04-01T11:31:55;14.30;99.90
10459;DHT22;5277;48.722;8.736;2023-04-01T11:40:14;14.50;99.90
10459;DHT22;5277;48.722;8.736;2023-04-01T11:43:14;14.70;99.90
10459;DHT22;5277;48.722;8.736;2023-04-01T11:48:56;14.80;99.30
10459;DHT22;5277;48.722;8.736;2023-04-01T11:51:40;15.00;99.90
10459;DHT22;5277;48.722;8.736;2023-04-01T11:54:32;14.90;99.70
10459;DHT22;5277;48.722;8.736;2023-04-01T12:11:43;13.40;99.90
10459;DHT22;5277;48.722;8.736;2023-04-01T12:16:55;13.00;99.90
10459;DHT22;5277;48.722;8.736;2023-04-01T12:22:43;13.20;99.90
10459;DHT22;5277;48.722;8.736;2023-04-01T12:31:06;14.80;99.90
10459;DHT22;5277;48.722;8.736;2023-04-01T12:33:45;15.10;99.90
10459;DHT22;5277;48.722;8.736;2023-04-01T12:36:30;15.30;99.00
10459;DHT22;5277;48.722;8.736;2023-04-01T12:39:17;15.40;99.80
10459;DHT22;5277;48.722;8.736;2023-04-01T12:47:33;14.20;99.90
10459;DHT22;5277;48.722;8.736;2023-04-01T12:50:24;14.00;99.00
10459;DHT22;5277;48.722;8.736;2023-04-01T12:55:49;13.60;99.90
10459;DHT22;5277;48.722;8.736;2023-04-01T13:09:50;13.20;99.90
10459;DHT22;5277;48.722;8.736;2023-04-01T13:12:56;12.90;99.90
10459;DHT22;5277;48.722;8.736;2023-04-01T13:15:31;13.00;99.90
10459;DHT22;5277;48.722;8.736;2023-04-01T13:20:43;12.80;99.90
10459;DHT22;5277;48.722;8.736;2023-04-01T13:28:16;12.70;99.90
10459;DHT22;5277;48.722;8.736;2023-04-01T13:31:04;12.60;99.90
10459;DHT22;5277;48.722;8.736;2023-04-01T13:33:51;12.50;99.90
10459;DHT22;5277;48.722;8.736;2023-04-01T13:36:53;12.60;99.90
10459;DHT22;5277;48.722;8.736;2023-04-01T13:39:27;12.50;99.90
10459;DHT22;5277;48.722;8.736;2023-04-01T13:42:23;12.30;99.90
10459;DHT22;5277;48.722;8.736;2023-04-01T13:45:13;12.40;99.90
10459;DHT22;5277;48.722;8.736;2023-04-01T13:47:52;12.40;99.90
10459;DHT22;5277;48.722;8.736;2023-04-01T13:58:55;12.50;99.90
10459;DHT22;5277;48.722;8.736;2023-04-01T14:20:29;12.50;99.90
10459;DHT22;5277;48.722;8.736;2023-04-01T14:36:41;12.40;99.90
10459;DHT22;5277;48.722;8.736;2023-04-01T14:48:00;12.30;99.90
10459;DHT22;5277;48.722;8.736;2023-04-01T14:50:42;12.40;99.90
10459;DHT22;5277;48.722;8.736;2023-04-01T14:56:06;12.30;99.90
10459;DHT22;5277;48.722;8.736;2023-04-01T14:58:44;12.30;99.90
10459;DHT22;5277;48.722;8.736;2023-04-01T15:12:19;12.50;99.90
10459;DHT22;5277;48.722;8.736;2023-04-01T15:17:53;12.40;99.90
10459;DHT22;5277;48.722;8.736;2023-04-01T15:29:32;12.10;99.90
10459;DHT22;5277;48.722;8.736;2023-04-01T15:37:41;12.10;99.90
10459;DHT22;5277;48.722;8.736;2023-04-01T15:40:29;12.20;99.90
10459;DHT22;5277;48.722;8.736;2023-04-01T15:50:58;11.80;99.90
10459;DHT22;5277;48.722;8.736;2023-04-01T16:05:20;11.60;99.90
10459;DHT22;5277;48.722;8.736;2023-04-01T16:10:57;11.60;99.90
10459;DHT22;5277;48.722;8.736;2023-04-01T16:13:46;11.60;99.90
10459;DHT22;5277;48.722;8.736;2023-04-01T16:24:08;11.60;99.90
10459;DHT22;5277;48.722;8.736;2023-04-01T16:31:55;11.60;99.90
10459;DHT22;5277;48.722;8.736;2023-04-01T16:34:36;11.60;99.90
10459;DHT22;5277;48.722;8.736;2023-04-01T16:37:50;11.50;99.90
10459;DHT22;5277;48.722;8.736;2023-04-01T16:42:52;11.40;99.90
10459;DHT22;5277;48.722;8.736;2023-04-01T16:45:38;11.40;99.90
10459;DHT22;5277;48.722;8.736;2023-04-01T16:48:13;11.30;99.90
10459;DHT22;5277;48.722;8.736;2023-04-01T16:51:09;11.30;99.90
10459;DHT22;5277;48.722;8.736;2023-04-01T16:53:49;11.30;99.90
10459;DHT22;5277;48.722;8.736;2023-04-01T16:56:24;11.20;99.90
10459;DHT22;5277;48.722;8.736;2023-04-01T17:01:44;11.20;99.90
10459;DHT22;5277;48.722;8.736;2023-04-01T17:04:32;11.10;99.90
10459;DHT22;5277;48.722;8.736;2023-04-01T17:07:06;11.10;99.90
10459;DHT22;5277;48.722;8.736;2023-04-01T17:09:45;11.10;99.90
10459;DHT22;5277;48.722;8.736;2023-04-01T17:15:21;11.00;99.90
10459;DHT22;5277;48.722;8.736;2023-04-01T17:21:16;10.90;99.90
10459;DHT22;5277;48.722;8.736;2023-04-01T17:35:53;10.90;99.90
10459;DHT22;5277;48.722;8.736;2023-04-01T17:49:01;10.80;99.90
10459;DHT22;5277;48.722;8.736;2023-04-01T17:51:43;10.70;99.90
10459;DHT22;5277;48.722;8.736;2023-04-01T17:59:43;10.50;99.90
10459;DHT22;5277;48.722;8.736;2023-04-01T18:13:32;10.30;99.90
10459;DHT22;5277;48.722;8.736;2023-04-01T18:16:24;10.30;99.90
10459;DHT22;5277;48.722;8.736;2023-04-01T18:22:15;10.10;99.90
10459;DHT22;5277;48.722;8.736;2023-04-01T18:24:59;10.00;99.90
10459;DHT22;5277;48.722;8.736;2023-04-01T18:27:38;9.90;99.90
10459;DHT22;5277;48.722;8.736;2023-04-01T18:30:19;9.80;99.90
10459;DHT22;5277;48.722;8.736;2023-04-01T18:35:51;9.70;99.90
10459;DHT22;5277;48.722;8.736;2023-04-01T18:38:33;9.60;99.90
10459;DHT22;5277;48.722;8.736;2023-04-01T18:41:26;9.60;99.90
10459;DHT22;5277;48.722;8.736;2023-04-01T18:46:54;9.50;99.90
10459;DHT22;5277;48.722;8.736;2023-04-01T18:49:39;9.40;99.90
10459;DHT22;5277;48.722;8.736;2023-04-01T18:52:37;9.30;99.90
10459;DHT22;5277;48.722;8.736;2023-04-01T18:57:50;9.20;99.90
10459;DHT22;5277;48.722;8.736;2023-04-01T19:00:28;9.20;99.90
10459;DHT22;5277;48.722;8.736;2023-04-01T19:03:02;9.20;99.90
10459;DHT22;5277;48.722;8.736;2023-04-01T19:05:52;9.20;99.90
10459;DHT22;5277;48.722;8.736;2023-04-01T19:08:26;9.20;99.90
10459;DHT22;5277;48.722;8.736;2023-04-01T19:19:24;9.20;99.90
10459;DHT22;5277;48.722;8.736;2023-04-01T19:22:02;9.20;99.90
10459;DHT22;5277;48.722;8.736;2023-04-01T19:24:48;9.20;99.90
10459;DHT22;5277;48.722;8.736;2023-04-01T19:27:41;9.10;99.90
10459;DHT22;5277;48.722;8.736;2023-04-01T19:30:27;9.10;99.90
10459;DHT22;5277;48.722;8.736;2023-04-01T19:33:31;9.10;99.90
10459;DHT22;5277;48.722;8.736;2023-04-01T19:36:11;9.10;99.90
10459;DHT22;5277;48.722;8.736;2023-04-01T19:38:49;9.00;99.90
10459;DHT22;5277;48.722;8.736;2023-04-01T19:44:21;9.00;99.90
10459;DHT22;5277;48.722;8.736;2023-04-01T19:46:54;9.00;99.90
10459;DHT22;5277;48.722;8.736;2023-04-01T19:49:45;9.00;99.90
10459;DHT22;5277;48.722;8.736;2023-04-01T19:54:58;9.00;99.90
10459;DHT22;5277;48.722;8.736;2023-04-01T19:57:46;9.00;99.90
10459;DHT22;5277;48.722;8.736;2023-04-01T20:00:24;9.00;99.90
10459;DHT22;5277;48.722;8.736;2023-04-01T20:03:11;9.00;99.90
10459;DHT22;5277;48.722;8.736;2023-04-01T20:16:15;9.10;99.90
10459;DHT22;5277;48.722;8.736;2023-04-01T20:18:52;9.10;99.90
10459;DHT22;5277;48.722;8.736;2023-04-01T20:21:35;9.10;99.90
10459;DHT22;5277;48.722;8.736;2023-04-01T20:24:05;9.10;99.90
10459;DHT22;5277;48.722;8.736;2023-04-01T20:26:38;9.20;99.90
10459;DHT22;5277;48.722;8.736;2023-04-01T20:37:37;9.10;99.90
10459;DHT22;5277;48.722;8.736;2023-04-01T21:01:33;8.80;99.90
10459;DHT22;5277;48.722;8.736;2023-04-01T21:04:27;8.70;99.90
10459;DHT22;5277;48.722;8.736;2023-04-01T21:07:21;8.70;99.90
10459;DHT22;5277;48.722;8.736;2023-04-01T21:10:16;8.60;99.90
10459;DHT22;5277;48.722;8.736;2023-04-01T21:13:02;8.60;99.90
10459;DHT22;5277;48.722;8.736;2023-04-01T21:24:28;8.60;99.90
10459;DHT22;5277;48.722;8.736;2023-04-01T21:29:51;8.60;99.90
10459;DHT22;5277;48.722;8.736;2023-04-01T21:32:31;8.60;99.90
10459;DHT22;5277;48.722;8.736;2023-04-01T21:46:22;8.60;99.90
10459;DHT22;5277;48.722;8.736;2023-04-01T22:00:13;8.50;99.90
10459;DHT22;5277;48.722;8.736;2023-04-01T22:09:37;8.50;99.90
10459;DHT22;5277;48.722;8.736;2023-04-01T22:14:28;8.50;99.90
10459;DHT22;5277;48.722;8.736;2023-04-01T22:17:05;8.40;99.90
10459;DHT22;5277;48.722;8.736;2023-04-01T22:19:59;8.40;99.90
10459;DHT22;5277;48.722;8.736;2023-04-01T22:22:55;8.30;99.90
10459;DHT22;5277;48.722;8.736;2023-04-01T22:25:46;8.30;99.90
10459;DHT22;5277;48.722;8.736;2023-04-01T22:28:26;8.20;99.90
10459;DHT22;5277;48.722;8.736;2023-04-01T22:30:59;8.20;99.90
10459;DHT22;5277;48.722;8.736;2023-04-01T22:33:49;8.10;99.90
10459;DHT22;5277;48.722;8.736;2023-04-01T22:39:38;8.00;99.90
10459;DHT22;5277;48.722;8.736;2023-04-01T22:47:42;7.80;99.90
10459;DHT22;5277;48.722;8.736;2023-04-01T22:52:58;7.70;99.90
10459;DHT22;5277;48.722;8.736;2023-04-01T22:55:31;7.70;99.90
10459;DHT22;5277;48.722;8.736;2023-04-01T22:58:08;7.60;99.90
10459;DHT22;5277;48.722;8.736;2023-04-01T23:00:49;7.50;99.90
10459;DHT22;5277;48.722;8.736;2023-04-01T23:03:36;7.50;99.90
10459;DHT22;5277;48.722;8.736;2023-04-01T23:06:06;7.60;99.90
10459;DHT22;5277;48.722;8.736;2023-04-01T23:11:41;7.50;99.90
10459;DHT22;5277;48.722;8.736;2023-04-01T23:22:21;7.30;99.90
10459;DHT22;5277;48.722;8.736;2023-04-01T23:25:00;7.30;99.90
10459;DHT22;5277;48.722;8.736;2023-04-01T23:30:49;7.40;99.90
10459;DHT22;5277;48.722;8.736;2023-04-01T23:36:13;7.50;99.90
10459;DHT22;5277;48.722;8.736;2023-04-01T23:38:41;7.50;99.90
10459;DHT22;5277;48.722;8.736;2023-04-01T23:41:15;7.50;99.90
10459;DHT22;5277;48.722;8.736;2023-04-01T23:43:43;7.50;99.90
10459;DHT22;5277;48.722;8.736;2023-04-01T23:46:11;7.50;99.90
10459;DHT22;5277;48.722;8.736;2023-04-01T23:48:40;7.50;99.90
10459;DHT22;5277;48.722;8.736;2023-04-01T23:51:25;7.50;99.90
10459;DHT22;5277;48.722;8.736;2023-04-01T23:54:03;7.60;99.90
10459;DHT22;5277;48.722;8.736;2023-04-01T23:56:42;7.60;99.90
10459;DHT22;5277;48.722;8.736;2023-04-01T23:59:16;7.70;99.90
